createdAt,value
2018-05-15T00:00:32.766Z,42.63
2018-05-15T00:03:00.312Z,44.80
2018-05-15T00:05:27.840Z,41.80
2018-05-15T00:07:55.303Z,38.17
2018-05-15T00:10:23.935Z,40.80
2018-05-15T00:12:52.227Z,51.30
2018-05-15T00:15:20.475Z,46.70
2018-05-15T00:17:47.998Z,43.57
2018-05-15T00:20:16.637Z,38.47
2018-05-15T00:22:44.972Z,39.63
2018-05-15T00:25:12.478Z,36.07
2018-05-15T00:27:41.115Z,43.93
2018-05-15T00:30:08.645Z,37.93
2018-05-15T00:32:36.181Z,44.97
2018-05-15T00:35:04.473Z,44.70
2018-05-15T00:37:31.996Z,44.93
2018-05-15T00:40:00.255Z,45.37
2018-05-15T00:42:27.729Z,47.30
2018-05-15T00:44:55.197Z,53.83
2018-05-15T00:47:23.475Z,48.70
2018-05-15T00:49:51.362Z,50.47
2018-05-15T00:52:18.896Z,47.20
2018-05-15T00:54:46.841Z,47.33
2018-05-15T00:57:14.408Z,46.80
2018-05-15T00:59:41.895Z,46.17
2018-05-15T01:02:10.145Z,45.70
2018-05-15T01:04:37.793Z,49.70
2018-05-15T01:07:05.332Z,45.77
2018-05-15T01:09:32.865Z,46.20
2018-05-15T01:12:00.391Z,47.27
2018-05-15T01:14:28.686Z,40.13
2018-05-15T01:16:56.251Z,43.40
2018-05-15T01:19:25.232Z,45.67
2018-05-15T01:21:52.766Z,40.83
2018-05-15T01:24:20.643Z,41.13
2018-05-15T01:26:48.960Z,37.50
2018-05-15T01:29:17.227Z,40.60
2018-05-15T01:31:45.820Z,36.10
2018-05-15T01:34:13.348Z,37.20
2018-05-15T01:36:41.604Z,33.83
2018-05-15T01:39:10.032Z,37.50
2018-05-15T01:41:37.530Z,37.97
2018-05-15T01:44:05.382Z,35.80
2018-05-15T01:46:32.914Z,40.30
2018-05-15T01:49:00.417Z,43.23
2018-05-15T01:51:28.291Z,37.30
2018-05-15T01:53:55.776Z,39.87
2018-05-15T01:56:23.260Z,34.97
2018-05-15T01:58:50.789Z,42.67
2018-05-15T02:01:18.312Z,38.13
2018-05-15T02:03:46.611Z,42.17
2018-05-15T02:06:14.900Z,41.83
2018-05-15T02:08:42.439Z,47.30
2018-05-15T02:11:10.733Z,37.37
2018-05-15T02:13:38.272Z,40.23
2018-05-15T02:16:06.563Z,34.30
2018-05-15T02:18:34.112Z,34.33
2018-05-15T02:21:02.800Z,31.80
2018-05-15T02:23:31.095Z,32.23
2018-05-15T02:25:58.615Z,32.23
2018-05-15T02:28:26.915Z,35.23
2018-05-15T02:30:54.848Z,28.13
2018-05-15T02:33:22.394Z,33.77
2018-05-15T02:35:49.914Z,30.03
2018-05-15T02:38:17.457Z,34.60
2018-05-15T02:40:45.739Z,31.57
2018-05-15T02:43:13.271Z,33.90
2018-05-15T02:45:41.574Z,33.27
2018-05-15T02:48:09.119Z,28.93
2018-05-15T02:50:37.034Z,31.67
2018-05-15T02:53:04.555Z,34.17
2018-05-15T02:55:32.094Z,33.43
2018-05-15T02:58:00.388Z,31.73
2018-05-15T03:00:28.314Z,31.40
2018-05-15T03:02:55.843Z,34.37
2018-05-15T03:05:23.323Z,35.87
2018-05-15T03:07:50.850Z,36.27
2018-05-15T03:10:18.373Z,31.77
2018-05-15T03:12:45.910Z,32.87
2018-05-15T03:15:13.455Z,33.50
2018-05-15T03:17:40.999Z,34.03
2018-05-15T03:20:08.521Z,33.10
2018-05-15T03:22:36.044Z,34.20
2018-05-15T03:25:03.567Z,34.97
2018-05-15T03:27:31.070Z,33.87
2018-05-15T03:29:59.383Z,34.03
2018-05-15T03:32:26.919Z,33.10
2018-05-15T03:34:55.205Z,36.13
2018-05-15T03:37:23.143Z,35.00
2018-05-15T03:39:51.462Z,38.00
2018-05-15T03:42:18.984Z,33.93
2018-05-15T03:44:46.503Z,35.50
2018-05-15T03:47:14.035Z,35.80
2018-05-15T03:49:41.964Z,35.80
2018-05-15T03:52:09.917Z,41.23
2018-05-15T03:54:38.240Z,36.43
2018-05-15T03:57:05.794Z,35.37
2018-05-15T03:59:33.328Z,36.80
2018-05-15T04:02:12.656Z,40.43
2018-05-15T04:04:51.962Z,38.53
2018-05-15T04:10:22.695Z,38.37
2018-05-15T04:12:50.349Z,38.23
2018-05-15T04:15:17.782Z,38.30
2018-05-15T04:17:45.218Z,38.47
2018-05-15T04:20:13.642Z,36.30
2018-05-15T04:22:41.205Z,37.17
2018-05-15T04:25:08.663Z,34.50
2018-05-15T04:27:36.930Z,38.27
2018-05-15T04:30:04.441Z,35.07
2018-05-15T04:32:31.910Z,38.40
2018-05-15T04:34:59.535Z,33.97
2018-05-15T04:37:27.708Z,34.23
2018-05-15T04:39:55.247Z,34.30
2018-05-15T04:42:22.793Z,34.00
2018-05-15T04:44:50.353Z,35.20
2018-05-15T04:47:17.821Z,31.43
2018-05-15T04:49:45.530Z,30.70
2018-05-15T04:52:13.674Z,32.57
2018-05-15T04:54:41.547Z,35.10
2018-05-15T04:57:09.035Z,33.70
2018-05-15T04:59:36.496Z,36.63
2018-05-15T05:02:04.895Z,30.87
2018-05-15T05:04:32.289Z,34.10
2018-05-15T05:06:59.768Z,30.90
2018-05-15T05:09:27.273Z,33.83
2018-05-15T05:11:54.767Z,33.87
2018-05-15T05:14:22.243Z,34.97
2018-05-15T05:16:49.727Z,30.80
2018-05-15T05:19:17.199Z,31.13
2018-05-15T05:21:44.692Z,36.47
2018-05-15T05:24:12.248Z,30.30
2018-05-15T05:26:40.143Z,31.23
2018-05-15T05:29:08.036Z,33.23
2018-05-15T05:31:35.522Z,33.40
2018-05-15T05:34:03.401Z,32.70
2018-05-15T05:36:36.839Z,33.43
2018-05-15T05:39:06.075Z,31.60
2018-05-15T05:41:33.615Z,28.53
2018-05-15T05:44:01.157Z,29.30
2018-05-15T05:46:28.763Z,29.87
2018-05-15T05:48:56.187Z,27.00
2018-05-15T05:51:23.683Z,30.00
2018-05-15T05:53:51.163Z,29.43
2018-05-15T05:56:18.688Z,25.80
2018-05-15T05:58:46.157Z,28.47
2018-05-15T06:01:13.650Z,28.17
2018-05-15T06:03:41.885Z,31.60
2018-05-15T06:06:09.355Z,30.00
2018-05-15T06:08:36.816Z,32.80
2018-05-15T06:11:04.288Z,35.13
2018-05-15T06:13:32.110Z,29.83
2018-05-15T06:15:59.562Z,29.80
2018-05-15T06:18:27.343Z,30.17
2018-05-15T06:20:54.817Z,34.30
2018-05-15T06:23:22.231Z,30.73
2018-05-15T06:25:49.742Z,31.07
2018-05-15T06:31:17.211Z,30.63
2018-05-15T06:33:44.652Z,30.90
2018-05-15T06:36:12.107Z,27.27
2018-05-15T06:38:39.566Z,30.53
2018-05-15T06:41:07.020Z,25.70
2018-05-15T06:43:34.462Z,30.43
2018-05-15T06:46:01.907Z,29.00
2018-05-15T06:48:29.358Z,28.83
2018-05-15T06:50:56.824Z,26.00
2018-05-15T06:53:24.664Z,26.80
2018-05-15T06:55:52.116Z,24.77
2018-05-15T06:58:19.562Z,21.27
2018-05-15T07:00:48.107Z,23.47
2018-05-15T07:03:15.552Z,34.30
2018-05-15T07:05:43.003Z,26.70
2018-05-15T07:08:10.875Z,66.30
2018-05-15T07:10:38.717Z,172.63
2018-05-15T07:13:06.225Z,142.00
2018-05-15T07:15:33.683Z,17.17
2018-05-15T07:18:01.184Z,52.17
2018-05-15T07:20:29.413Z,20.20
2018-05-15T07:22:56.935Z,15.80
2018-05-15T07:25:24.423Z,13.00
2018-05-15T07:27:51.890Z,17.90
2018-05-15T07:30:19.340Z,13.83
2018-05-15T07:32:46.821Z,14.30
2018-05-15T07:35:15.043Z,11.53
2018-05-15T07:37:42.568Z,13.43
2018-05-15T07:40:10.163Z,16.20
2018-05-15T07:42:37.562Z,15.00
2018-05-15T07:45:06.172Z,12.97
2018-05-15T07:47:33.647Z,12.80
2018-05-15T07:50:01.090Z,14.00
2018-05-15T07:52:28.543Z,13.00
2018-05-15T07:54:55.974Z,14.17
2018-05-15T07:57:24.177Z,12.37
2018-05-15T07:59:51.620Z,11.67
2018-05-15T08:02:19.071Z,14.60
2018-05-15T08:04:46.898Z,11.10
2018-05-15T08:07:14.339Z,11.17
2018-05-15T08:09:41.794Z,13.20
2018-05-15T08:12:09.242Z,11.43
2018-05-15T08:14:36.685Z,12.20
2018-05-15T08:17:04.520Z,11.70
2018-05-15T08:19:31.967Z,10.67
2018-05-15T08:22:00.183Z,11.43
2018-05-15T08:24:27.631Z,11.57
2018-05-15T08:26:55.088Z,12.90
2018-05-15T08:29:22.888Z,11.57
2018-05-15T08:31:50.326Z,11.00
2018-05-15T08:34:17.775Z,11.33
2018-05-15T08:36:45.986Z,11.23
2018-05-15T08:39:13.431Z,11.17
2018-05-15T08:41:40.891Z,18.57
2018-05-15T08:44:08.720Z,11.07
2018-05-15T08:46:36.170Z,12.67
2018-05-15T08:49:03.610Z,13.13
2018-05-15T08:51:31.109Z,11.13
2018-05-15T08:53:59.284Z,11.50
2018-05-15T08:56:26.735Z,10.60
2018-05-15T08:58:54.959Z,11.47
2018-05-15T09:01:23.171Z,11.33
2018-05-15T09:03:51.007Z,11.73
2018-05-15T09:06:18.446Z,11.90
2018-05-15T09:08:46.314Z,12.70
2018-05-15T09:11:14.524Z,13.60
2018-05-15T09:13:43.122Z,11.80
2018-05-15T09:16:10.575Z,11.60
2018-05-15T09:18:38.030Z,12.40
2018-05-15T09:21:06.241Z,13.23
2018-05-15T09:23:34.088Z,15.53
2018-05-15T09:26:01.540Z,15.63
2018-05-15T09:28:28.983Z,10.63
2018-05-15T09:30:56.428Z,10.90
2018-05-15T09:33:23.888Z,10.70
2018-05-15T09:35:51.332Z,13.40
2018-05-15T09:38:18.767Z,11.00
2018-05-15T09:40:46.601Z,11.43
2018-05-15T09:43:26.423Z,11.43
2018-05-15T09:45:53.882Z,10.37
2018-05-15T09:48:21.711Z,11.07
2018-05-15T09:50:49.148Z,11.60
2018-05-15T09:53:16.987Z,15.03
2018-05-15T09:55:44.427Z,11.63
2018-05-15T09:58:12.641Z,11.40
2018-05-15T10:00:40.462Z,10.37
2018-05-15T10:03:07.911Z,9.93
2018-05-15T10:05:35.353Z,10.60
2018-05-15T10:08:02.900Z,11.27
2018-05-15T10:10:30.227Z,11.83
2018-05-15T10:12:58.445Z,16.30
2018-05-15T10:15:25.880Z,11.83
2018-05-15T10:17:53.727Z,11.33
2018-05-15T10:20:21.935Z,10.70
2018-05-15T10:22:49.374Z,12.00
2018-05-15T10:25:16.816Z,11.77
2018-05-15T10:27:45.034Z,10.30
2018-05-15T10:30:13.233Z,10.60
2018-05-15T10:32:40.663Z,9.93
2018-05-15T10:35:08.099Z,10.73
2018-05-15T10:37:35.931Z,9.93
2018-05-15T10:40:03.370Z,10.30
2018-05-15T10:42:30.811Z,17.07
2018-05-15T10:44:58.268Z,12.50
2018-05-15T10:47:25.703Z,10.60
2018-05-15T10:49:53.150Z,11.83
2018-05-15T10:52:20.579Z,14.20
2018-05-15T10:54:48.410Z,12.30
2018-05-15T10:57:15.841Z,13.20
2018-05-15T10:59:43.292Z,12.10
2018-05-15T11:02:10.727Z,14.27
2018-05-15T11:04:38.162Z,14.10
2018-05-15T11:07:06.368Z,15.87
2018-05-15T11:09:34.202Z,15.47
2018-05-15T11:12:02.413Z,13.50
2018-05-15T11:14:29.851Z,10.70
2018-05-15T11:16:57.689Z,10.70
2018-05-15T11:19:36.821Z,10.40
2018-05-15T11:25:07.196Z,11.33
2018-05-15T11:27:35.010Z,11.80
2018-05-15T11:30:02.450Z,10.70
2018-05-15T11:32:30.280Z,13.70
2018-05-15T11:34:57.723Z,10.13
2018-05-15T11:37:25.932Z,10.13
2018-05-15T11:39:53.383Z,10.03
2018-05-15T11:42:21.617Z,8.03
2018-05-15T11:44:49.020Z,10.20
2018-05-15T11:47:16.529Z,10.20
2018-05-15T11:49:44.621Z,11.10
2018-05-15T11:52:12.545Z,10.57
2018-05-15T11:54:39.178Z,12.53
2018-05-15T11:57:07.018Z,9.47
2018-05-15T11:59:34.458Z,9.73
2018-05-15T12:02:02.285Z,8.27
2018-05-15T12:04:29.714Z,9.90
2018-05-15T12:06:57.142Z,9.97
2018-05-15T12:09:25.346Z,7.97
2018-05-15T12:11:52.791Z,10.97
2018-05-15T12:14:20.239Z,10.43
2018-05-15T12:16:47.683Z,8.53
2018-05-15T12:19:15.115Z,8.27
2018-05-15T12:21:42.551Z,7.77
2018-05-15T12:24:10.379Z,7.37
2018-05-15T12:26:37.830Z,7.83
2018-05-15T12:29:05.663Z,6.87
2018-05-15T12:31:33.862Z,7.50
2018-05-15T12:34:02.068Z,10.83
2018-05-15T12:36:29.519Z,7.73
2018-05-15T12:38:56.951Z,7.93
2018-05-15T12:41:25.237Z,7.67
2018-05-15T12:43:52.586Z,8.30
2018-05-15T12:46:20.067Z,7.33
2018-05-15T12:48:49.328Z,8.23
2018-05-15T12:51:16.739Z,6.90
2018-05-15T12:53:44.942Z,7.10
2018-05-15T12:56:12.382Z,8.10
2018-05-15T12:58:40.210Z,6.93
2018-05-15T13:01:07.650Z,8.13
2018-05-15T13:03:35.087Z,9.03
2018-05-15T13:06:02.542Z,6.60
2018-05-15T13:08:30.141Z,7.80
2018-05-15T13:10:57.568Z,5.90
2018-05-15T13:13:25.003Z,6.93
2018-05-15T13:15:52.438Z,5.50
2018-05-15T13:18:20.758Z,6.80
2018-05-15T13:20:48.087Z,5.87
2018-05-15T13:23:15.511Z,6.27
2018-05-15T13:25:43.718Z,12.00
2018-05-15T13:28:11.159Z,7.23
2018-05-15T13:30:39.371Z,6.40
2018-05-15T13:33:06.809Z,6.70
2018-05-15T13:35:34.642Z,6.40
2018-05-15T13:38:02.884Z,7.20
2018-05-15T13:40:30.322Z,5.57
2018-05-15T13:42:58.155Z,6.20
2018-05-15T13:45:25.984Z,5.80
2018-05-15T13:47:53.415Z,8.90
2018-05-15T13:50:20.853Z,6.30
2018-05-15T13:52:48.679Z,7.20
2018-05-15T13:55:16.107Z,6.17
2018-05-15T13:57:43.946Z,5.00
2018-05-15T14:00:11.771Z,6.33
2018-05-15T14:02:39.603Z,5.40
2018-05-15T14:05:07.037Z,5.97
2018-05-15T14:07:34.468Z,5.23
2018-05-15T14:10:01.898Z,6.73
2018-05-15T14:12:29.768Z,4.53
2018-05-15T14:14:57.166Z,9.87
2018-05-15T14:17:24.607Z,5.20
2018-05-15T14:19:52.027Z,5.30
2018-05-15T14:22:19.460Z,5.20
2018-05-15T14:24:46.988Z,6.97
2018-05-15T14:27:14.731Z,5.60
2018-05-15T14:29:42.162Z,5.90
2018-05-15T14:32:10.371Z,6.60
2018-05-15T14:34:37.791Z,5.30
2018-05-15T14:37:05.999Z,6.20
2018-05-15T14:39:33.418Z,6.60
2018-05-15T14:42:13.467Z,6.40
2018-05-15T14:44:40.899Z,6.23
2018-05-15T14:47:08.342Z,7.07
2018-05-15T14:49:35.766Z,5.13
2018-05-15T14:52:03.207Z,6.57
2018-05-15T14:54:32.142Z,5.40
2018-05-15T14:56:59.993Z,6.33
2018-05-15T14:59:27.427Z,5.87
2018-05-15T15:01:54.863Z,5.83
2018-05-15T15:04:23.159Z,7.77
2018-05-15T15:06:50.587Z,5.23
2018-05-15T15:09:18.024Z,7.13
2018-05-15T15:11:46.225Z,5.90
2018-05-15T15:14:14.443Z,9.50
2018-05-15T15:16:41.916Z,7.27
2018-05-15T15:19:09.330Z,6.97
2018-05-15T15:21:36.767Z,6.00
2018-05-15T15:24:04.194Z,5.90
2018-05-15T15:26:31.638Z,11.63
2018-05-15T15:28:59.484Z,8.07
2018-05-15T15:31:26.920Z,9.67
2018-05-15T15:33:54.355Z,5.90
2018-05-15T15:36:22.538Z,5.70
2018-05-15T15:38:50.743Z,5.90
2018-05-15T15:41:18.947Z,5.30
2018-05-15T15:43:46.435Z,11.13
2018-05-15T15:46:13.816Z,8.37
2018-05-15T15:48:41.255Z,7.13
2018-05-15T15:51:09.466Z,16.93
2018-05-15T15:53:37.297Z,7.33
2018-05-15T15:56:04.726Z,7.40
2018-05-15T15:58:32.159Z,6.70
2018-05-15T16:00:59.588Z,6.93
2018-05-15T16:03:27.413Z,8.37
2018-05-15T16:05:54.838Z,6.60
2018-05-15T16:08:22.286Z,6.30
2018-05-15T16:10:50.475Z,6.27
2018-05-15T16:13:21.522Z,9.10
2018-05-15T16:15:49.095Z,8.33
2018-05-15T16:18:16.530Z,9.00
2018-05-15T16:20:43.953Z,7.20
2018-05-15T16:23:11.427Z,8.10
2018-05-15T16:25:38.863Z,9.20
2018-05-15T16:28:07.074Z,10.20
2018-05-15T16:30:34.542Z,6.93
2018-05-15T16:33:02.378Z,6.77
2018-05-15T16:35:30.605Z,7.43
2018-05-15T16:37:58.141Z,8.53
2018-05-15T16:40:25.602Z,6.87
2018-05-15T16:42:56.458Z,6.60
2018-05-15T16:45:24.007Z,7.93
2018-05-15T16:47:52.218Z,10.83
2018-05-15T16:50:20.095Z,7.43
2018-05-15T16:52:47.563Z,7.77
2018-05-15T16:55:15.012Z,10.30
2018-05-15T16:57:42.453Z,7.93
2018-05-15T17:00:09.913Z,10.50
2018-05-15T17:02:37.351Z,9.60
2018-05-15T17:05:05.559Z,9.80
2018-05-15T17:07:33.007Z,9.60
2018-05-15T17:10:01.222Z,11.23
2018-05-15T17:12:29.049Z,9.17
2018-05-15T17:14:56.485Z,9.00
2018-05-15T17:17:24.712Z,12.63
2018-05-15T17:19:52.153Z,10.80
2018-05-15T17:22:19.590Z,11.60
2018-05-15T17:24:47.044Z,11.37
2018-05-15T17:27:14.489Z,14.43
2018-05-15T17:29:42.343Z,9.90
2018-05-15T17:32:09.789Z,10.33
2018-05-15T17:34:37.679Z,5.63
2018-05-15T17:37:05.114Z,5.23
2018-05-15T17:39:32.949Z,5.50
2018-05-15T17:42:00.405Z,6.43
2018-05-15T17:44:27.851Z,7.00
2018-05-15T17:46:55.287Z,4.80
2018-05-15T17:49:22.731Z,7.67
2018-05-15T17:51:50.179Z,4.87
2018-05-15T17:54:17.615Z,7.00
2018-05-15T17:56:45.451Z,6.40
2018-05-15T17:59:13.291Z,8.77
2018-05-15T18:01:40.723Z,6.13
2018-05-15T18:04:08.186Z,6.30
2018-05-15T18:06:36.027Z,11.30
2018-05-15T18:09:03.467Z,9.33
2018-05-15T18:11:30.906Z,6.00
2018-05-15T18:13:58.340Z,8.20
2018-05-15T18:16:25.792Z,10.50
2018-05-15T18:18:53.231Z,8.80
2018-05-15T18:21:20.760Z,7.37
2018-05-15T18:23:48.110Z,5.80
2018-05-15T18:26:16.324Z,7.00
2018-05-15T18:28:43.768Z,8.67
2018-05-15T18:31:11.215Z,7.67
2018-05-15T18:33:38.652Z,8.03
2018-05-15T18:36:06.879Z,7.20
2018-05-15T18:38:34.711Z,6.90
2018-05-15T18:41:02.921Z,8.80
2018-05-15T18:43:30.355Z,8.60
2018-05-15T18:45:57.809Z,7.70
2018-05-15T18:48:25.253Z,7.37
2018-05-15T18:50:52.709Z,7.80
2018-05-15T18:53:20.145Z,10.17
2018-05-15T18:55:47.578Z,8.40
2018-05-15T18:58:15.019Z,7.93
2018-05-15T19:00:43.024Z,8.23
2018-05-15T19:03:10.457Z,7.90
2018-05-15T19:05:37.942Z,9.80
2018-05-15T19:08:06.153Z,8.63
2018-05-15T19:10:33.608Z,10.90
2018-05-15T19:13:01.039Z,7.20
2018-05-15T19:15:28.483Z,7.93
2018-05-15T19:17:55.919Z,7.70
2018-05-15T19:20:24.139Z,7.27
2018-05-15T19:22:51.594Z,10.03
2018-05-15T19:25:19.438Z,10.50
2018-05-15T19:27:46.883Z,10.77
2018-05-15T19:30:14.339Z,8.43
2018-05-15T19:32:42.543Z,8.50
2018-05-15T19:35:09.998Z,8.57
2018-05-15T19:37:37.418Z,8.87
2018-05-15T19:40:11.395Z,8.40
2018-05-15T19:42:38.839Z,10.87
2018-05-15T19:45:06.735Z,8.50
2018-05-15T19:47:34.525Z,8.27
2018-05-15T19:50:02.729Z,12.73
2018-05-15T19:52:30.172Z,9.83
2018-05-15T19:54:57.611Z,10.80
2018-05-15T19:57:25.919Z,11.50
2018-05-15T19:59:53.746Z,10.63
2018-05-15T20:02:21.186Z,13.33
2018-05-15T20:04:48.704Z,9.63
2018-05-15T20:07:16.067Z,12.83
2018-05-15T20:09:43.491Z,8.37
2018-05-15T20:12:10.929Z,8.50
2018-05-15T20:14:39.153Z,9.67
2018-05-15T20:17:06.608Z,13.40
2018-05-15T20:19:34.050Z,9.57
2018-05-15T20:22:01.490Z,12.27
2018-05-15T20:24:28.939Z,10.07
2018-05-15T20:26:56.392Z,10.23
2018-05-15T20:29:24.608Z,15.43
2018-05-15T20:31:52.056Z,13.10
2018-05-15T20:34:19.502Z,8.97
2018-05-15T20:36:46.927Z,11.37
2018-05-15T20:39:15.138Z,9.47
2018-05-15T20:41:42.588Z,9.20
2018-05-15T20:44:10.029Z,8.77
2018-05-15T20:46:37.470Z,9.53
2018-05-15T20:49:05.749Z,8.23
2018-05-15T20:51:33.176Z,8.23
2018-05-15T20:54:00.603Z,8.57
2018-05-15T20:56:28.048Z,9.57
2018-05-15T20:58:55.482Z,8.07
2018-05-15T21:01:22.928Z,8.67
2018-05-15T21:03:50.755Z,8.00
2018-05-15T21:06:18.231Z,8.33
2018-05-15T21:08:45.662Z,8.57
2018-05-15T21:11:13.104Z,8.53
2018-05-15T21:13:41.894Z,7.93
2018-05-15T21:16:10.471Z,7.73
2018-05-15T21:18:39.429Z,8.30
2018-05-15T21:21:06.891Z,8.10
2018-05-15T21:23:34.385Z,7.73
2018-05-15T21:26:02.986Z,8.40
2018-05-15T21:28:30.483Z,7.93
2018-05-15T21:30:58.379Z,7.57
2018-05-15T21:33:26.235Z,7.57
2018-05-15T21:35:53.697Z,7.20
2018-05-15T21:38:21.281Z,7.77
2018-05-15T21:40:48.771Z,8.07
2018-05-15T21:43:16.982Z,8.83
2018-05-15T21:45:44.451Z,8.33
2018-05-15T21:48:11.943Z,8.90
2018-05-15T21:50:39.432Z,9.00
2018-05-15T21:53:07.258Z,8.87
2018-05-15T21:55:34.682Z,8.07
2018-05-15T21:58:02.128Z,7.80
2018-05-15T22:00:29.957Z,8.27
2018-05-15T22:02:58.169Z,7.77
2018-05-15T22:05:26.374Z,7.27
2018-05-15T22:07:54.215Z,7.27
2018-05-15T22:10:21.663Z,7.80
2018-05-15T22:13:00.859Z,7.57
2018-05-15T22:15:40.929Z,7.77
2018-05-15T22:18:20.241Z,7.33
2018-05-15T22:21:00.284Z,7.27
2018-05-15T22:23:27.226Z,7.77
2018-05-15T22:25:54.670Z,8.17
2018-05-15T22:28:22.120Z,7.30
2018-05-15T22:30:49.562Z,7.17
2018-05-15T22:33:17.004Z,8.13
2018-05-15T22:35:44.451Z,8.17
2018-05-15T22:38:12.666Z,7.30
2018-05-15T22:40:40.093Z,8.87
2018-05-15T22:43:07.542Z,8.23
2018-05-15T22:45:34.975Z,8.00
2018-05-15T22:48:03.519Z,8.80
2018-05-15T22:50:31.738Z,8.23
2018-05-15T22:52:59.167Z,8.40
2018-05-15T22:55:27.371Z,8.40
2018-05-15T22:57:54.798Z,8.60
2018-05-15T23:00:23.015Z,7.83
2018-05-15T23:02:50.446Z,8.43
2018-05-15T23:05:18.282Z,8.20
2018-05-15T23:07:45.718Z,9.23
2018-05-15T23:10:13.155Z,8.80
2018-05-15T23:12:40.591Z,8.90
2018-05-15T23:15:08.031Z,9.10
2018-05-15T23:17:36.217Z,9.70
2018-05-15T23:20:03.658Z,10.10
2018-05-15T23:22:41.807Z,10.60
2018-05-15T23:25:09.658Z,10.70
2018-05-15T23:27:37.096Z,11.60
2018-05-15T23:30:04.546Z,12.60
2018-05-15T23:32:32.747Z,12.43
2018-05-15T23:35:00.966Z,12.40
2018-05-15T23:37:28.414Z,12.30
2018-05-15T23:39:55.853Z,13.37
2018-05-15T23:42:23.290Z,14.17
2018-05-15T23:44:50.743Z,14.33
2018-05-15T23:47:18.185Z,14.37
2018-05-15T23:49:46.022Z,15.67
2018-05-15T23:52:13.463Z,15.53
2018-05-15T23:54:40.907Z,15.33
2018-05-15T23:57:08.353Z,13.90
2018-05-15T23:59:36.567Z,14.80
